Time;durP1;ratioP1;P1;durP2;ratioP2;P2;SDS_P1;SDS_P2;PMS_P1;PMS_P2;Temp;Humidity;BMP_temperature;BMP_pressure;BME280_temperature;BME280_humidity;BME280_pressure;Samples;Min_cycle;Max_cycle;Signal;HPM_P1;HPM_P2
2023/03/03 00:00:45;;;;;;;47.72;25.90;;;;;;;0.42;100.00;102240.13;5242076;28;20108;-79
2023/03/03 00:03:20;;;;;;;48.47;25.92;;;;;;;0.39;100.00;102248.06;5247914;28;20037;-79
2023/03/03 00:05:52;;;;;;;47.50;26.08;;;;;;;0.45;100.00;102253.22;5246894;28;20029;-78
2023/03/03 00:08:25;;;;;;;46.78;25.52;;;;;;;0.42;100.00;102250.63;5245866;28;20072;-78
2023/03/03 00:10:56;;;;;;;45.13;25.48;;;;;;;0.43;100.00;102246.28;5248827;28;20347;-78
2023/03/03 00:13:29;;;;;;;49.25;26.63;;;;;;;0.46;100.00;102247.09;5245202;28;20467;-78
2023/03/03 00:16:34;;;;;;;51.50;26.58;;;;;;;0.47;100.00;102250.59;5249868;28;20032;-78
2023/03/03 00:19:18;;;;;;;48.87;26.37;;;;;;;0.49;100.00;102248.81;5251182;28;20442;-78
2023/03/03 00:21:50;;;;;;;47.65;25.00;;;;;;;0.49;100.00;102248.81;5250860;28;20321;-78
2023/03/03 00:24:24;;;;;;;48.55;25.92;;;;;;;0.48;100.00;102250.59;5249220;28;20033;-78
2023/03/03 00:27:01;;;;;;;41.08;19.73;;;;;;;0.50;100.00;102253.16;5249663;28;20052;-78
2023/03/03 00:29:34;;;;;;;46.85;24.95;;;;;;;0.51;100.00;102247.91;5250428;28;20025;-78
2023/03/03 00:32:40;;;;;;;47.93;24.57;;;;;;;0.51;100.00;102247.03;5265289;28;20036;-79
2023/03/03 00:35:26;;;;;;;50.08;24.67;;;;;;;0.51;100.00;102244.41;5251846;28;20033;-78
2023/03/03 00:38:00;;;;;;;44.47;24.27;;;;;;;0.51;100.00;102250.53;5247868;28;20163;-78
2023/03/03 00:40:37;;;;;;;47.83;25.05;;;;;;;0.52;100.00;102256.69;5251468;28;20043;-78
2023/03/03 00:43:16;;;;;;;46.47;24.50;;;;;;;0.52;100.00;102249.66;5249734;28;20025;-78
2023/03/03 00:45:50;;;;;;;48.33;23.83;;;;;;;0.53;100.00;102250.50;5252650;28;20021;-78
2023/03/03 00:48:32;;;;;;;45.97;24.15;;;;;;;0.54;100.00;102255.75;5249355;28;20028;-78
2023/03/03 00:51:18;;;;;;;45.70;23.73;;;;;;;0.55;100.00;102257.47;5251860;28;20577;-78
2023/03/03 00:53:49;;;;;;;48.03;23.40;;;;;;;0.51;100.00;102254.91;5249181;28;20062;-78
2023/03/03 00:56:21;;;;;;;44.20;23.10;;;;;;;0.49;100.00;102249.69;5250471;28;20491;-78
2023/03/03 00:58:53;;;;;;;47.35;23.95;;;;;;;0.49;100.00;102257.56;5247516;28;20033;-78
2023/03/03 01:01:24;;;;;;;43.28;22.77;;;;;;;0.46;100.00;102252.38;5251660;28;20031;-78
2023/03/03 01:03:55;;;;;;;43.72;22.80;;;;;;;0.45;100.00;102258.50;5250030;28;20036;-78
2023/03/03 01:06:27;;;;;;;45.72;23.17;;;;;;;0.42;100.00;102250.63;5252526;28;20525;-78
2023/03/03 01:08:58;;;;;;;43.38;23.02;;;;;;;0.42;100.00;102249.78;5248909;28;20419;-78
2023/03/03 01:11:30;;;;;;;47.60;24.17;;;;;;;0.40;100.00;102260.28;5252533;28;20040;-78
2023/03/03 01:14:01;;;;;;;46.63;24.05;;;;;;;0.42;100.00;102265.53;5250377;28;20065;-78
2023/03/03 01:16:32;;;;;;;46.15;23.58;;;;;;;0.47;100.00;102274.22;5253065;28;20479;-78
2023/03/03 01:19:04;;;;;;;47.03;23.40;;;;;;;0.44;100.00;102266.38;5251461;28;20048;-78
2023/03/03 01:21:35;;;;;;;48.08;24.67;;;;;;;0.48;100.00;102271.59;5250170;28;21733;-78
2023/03/03 01:24:06;;;;;;;45.80;23.67;;;;;;;0.48;100.00;102270.69;5248882;28;20094;-78
2023/03/03 01:26:38;;;;;;;39.33;22.48;;;;;;;0.47;100.00;102266.34;5250216;28;20132;-78
2023/03/03 01:29:09;;;;;;;44.42;22.75;;;;;;;0.50;100.00;102268.91;5248023;28;20024;-78
2023/03/03 01:31:40;;;;;;;45.80;23.35;;;;;;;0.52;100.00;102270.66;5249778;28;20037;-78
2023/03/03 01:34:11;;;;;;;45.28;23.55;;;;;;;0.58;100.00;102272.34;5249198;28;20037;-78
2023/03/03 01:36:43;;;;;;;42.70;22.80;;;;;;;0.61;100.00;102268.81;5244313;28;20462;-78
2023/03/03 01:39:14;;;;;;;46.67;22.67;;;;;;;0.60;100.00;102269.72;5248613;28;20032;-78
2023/03/03 01:41:45;;;;;;;42.70;22.65;;;;;;;0.63;100.00;102269.66;5250834;28;20024;-78
2023/03/03 01:44:17;;;;;;;41.80;22.40;;;;;;;0.62;100.00;102270.56;5247456;28;20039;-78
2023/03/03 01:47:10;;;;;;;43.00;22.98;;;;;;;0.63;100.00;102285.41;5250757;28;20033;-78
2023/03/03 01:49:52;;;;;;;42.75;22.60;;;;;;;0.64;100.00;102281.91;5246297;28;20433;-78
2023/03/03 01:52:33;;;;;;;39.83;20.70;;;;;;;0.63;100.00;102286.28;5249812;28;20040;-78
2023/03/03 01:55:14;;;;;;;41.60;22.17;;;;;;;0.60;100.00;102285.47;5245832;28;20512;-78
2023/03/03 01:57:54;;;;;;;39.65;21.30;;;;;;;0.60;100.00;102278.47;5245709;28;20025;-78
2023/03/03 02:00:26;;;;;;;43.75;22.30;;;;;;;0.62;100.00;102278.44;5248893;28;20029;-78
2023/03/03 02:02:58;;;;;;;44.67;23.00;;;;;;;0.61;100.00;102266.19;5251100;28;20467;-78
2023/03/03 02:05:29;;;;;;;42.00;21.35;;;;;;;0.59;100.00;102263.56;5247779;28;20095;-78
2023/03/03 02:08:01;;;;;;;40.38;22.58;;;;;;;0.69;100.00;102269.56;5249947;28;20082;-78
2023/03/03 02:10:34;;;;;;;48.42;23.27;;;;;;;0.58;100.00;102267.09;5249295;28;20364;-78
2023/03/03 02:13:05;;;;;;;43.88;23.15;;;;;;;0.63;100.00;102260.00;5248369;28;20040;-78
2023/03/03 02:15:36;;;;;;;46.22;23.27;;;;;;;0.64;100.00;102269.66;5249657;28;20086;-78
2023/03/03 02:18:12;;;;;;;45.28;22.55;;;;;;;0.67;100.00;102273.97;5249998;28;20068;-78
2023/03/03 02:21:18;;;;;;;41.28;22.63;;;;;;;0.62;100.00;102279.31;5248995;28;20083;-78
2023/03/03 02:23:58;;;;;;;41.78;22.55;;;;;;;0.58;100.00;102278.47;5246185;28;20037;-78
2023/03/03 02:26:32;;;;;;;42.95;22.58;;;;;;;0.60;100.00;102275.81;5247272;28;20045;-78
2023/03/03 02:29:04;;;;;;;44.38;22.20;;;;;;;0.55;100.00;102278.50;5247463;28;20032;-79
2023/03/03 02:31:37;;;;;;;36.97;20.98;;;;;;;0.53;100.00;102274.16;5249804;28;20078;-78
2023/03/03 02:34:08;;;;;;;39.53;21.70;;;;;;;0.45;100.00;102282.13;5246677;28;20509;-78
2023/03/03 02:36:39;;;;;;;38.30;20.38;;;;;;;0.35;100.00;102273.47;5247966;28;20074;-78
2023/03/03 02:39:25;;;;;;;38.58;20.65;;;;;;;0.30;100.00;102270.03;5245785;28;20021;-78
2023/03/03 02:42:17;;;;;;;44.35;22.25;;;;;;;0.27;100.00;102274.44;5248852;28;20238;-78
2023/03/03 02:44:49;;;;;;;42.80;21.42;;;;;;;0.21;100.00;102269.25;5246598;28;20115;-78
2023/03/03 02:47:20;;;;;;;42.05;22.25;;;;;;;0.18;100.00;102272.78;5246820;28;20027;-78
2023/03/03 02:49:52;;;;;;;39.33;20.27;;;;;;;0.11;100.00;102281.59;5247934;28;20356;-78
2023/03/03 02:52:23;;;;;;;42.08;21.60;;;;;;;0.09;100.00;102278.13;5248663;28;20024;-78
2023/03/03 02:54:54;;;;;;;38.65;21.52;;;;;;;0.07;100.00;102283.38;5247516;28;20107;-78
2023/03/03 02:57:25;;;;;;;39.90;22.15;;;;;;;0.07;100.00;102274.66;5249797;28;20027;-78
2023/03/03 02:59:57;;;;;;;42.80;22.33;;;;;;;0.08;100.00;102279.88;5247855;28;20060;-78
2023/03/03 03:02:28;;;;;;;42.90;22.73;;;;;;;0.09;100.00;102278.97;5245133;28;20033;-78
2023/03/03 03:04:59;;;;;;;38.55;20.30;;;;;;;0.07;100.00;102280.75;5245256;28;20078;-78
2023/03/03 03:07:30;;;;;;;41.50;21.67;;;;;;;0.04;100.00;102279.91;5249545;28;20067;-78
2023/03/03 03:10:03;;;;;;;38.28;20.73;;;;;;;0.04;100.00;102282.53;5244383;28;20553;-78
2023/03/03 03:12:34;;;;;;;40.47;19.75;;;;;;;0.03;100.00;102280.81;5248103;28;20271;-78
2023/03/03 03:15:08;;;;;;;41.42;21.30;;;;;;;0.02;100.00;102287.81;5245101;28;20083;-79
2023/03/03 03:17:40;;;;;;;;;;;;;;;0.07;100.00;102280.75;5248804;28;20028;-78
2023/03/03 03:20:11;;;;;;;37.63;18.98;;;;;;;0.06;100.00;102286.00;5245306;28;19917;-78
2023/03/03 03:22:43;;;;;;;39.15;21.17;;;;;;;0.06;100.00;102288.63;5245815;28;20561;-78
2023/03/03 03:25:14;;;;;;;37.40;20.20;;;;;;;0.09;100.00;102286.84;5248476;28;20051;-78
2023/03/03 03:27:45;;;;;;;40.75;21.40;;;;;;;0.07;100.00;102282.53;5247203;28;20124;-79
2023/03/03 03:30:19;;;;;;;41.35;20.08;;;;;;;0.09;100.00;102289.47;5247177;28;20024;-78
2023/03/03 03:32:50;;;;;;;41.65;21.02;;;;;;;0.11;100.00;102289.47;5248452;28;20028;-78
2023/03/03 03:35:22;;;;;;;39.03;20.20;;;;;;;0.09;100.00;102293.88;5249035;28;20024;-78
2023/03/03 03:37:53;;;;;;;39.10;20.25;;;;;;;0.11;100.00;102295.59;5247587;28;20017;-78
2023/03/03 03:40:25;;;;;;;38.40;20.50;;;;;;;0.17;100.00;102292.03;5248675;28;20037;-78
2023/03/03 03:42:57;;;;;;;42.30;21.67;;;;;;;0.25;100.00;102289.31;5247958;28;20447;-78
2023/03/03 03:45:28;;;;;;;38.50;20.40;;;;;;;0.27;100.00;102303.31;5245439;28;20029;-78
2023/03/03 03:48:00;;;;;;;39.30;20.65;;;;;;;0.23;100.00;102289.38;5246940;28;20083;-78
2023/03/03 03:50:31;;;;;;;38.85;20.92;;;;;;;0.23;100.00;102288.47;5244938;28;20021;-78
2023/03/03 03:53:03;;;;;;;39.70;20.00;;;;;;;0.26;100.00;102306.84;5247659;28;20047;-78
2023/03/03 03:55:34;;;;;;;40.13;19.90;;;;;;;0.19;100.00;102299.03;5249307;28;20037;-79
2023/03/03 03:58:05;;;;;;;36.25;19.13;;;;;;;0.13;100.00;102304.31;5252927;28;20023;-79
2023/03/03 04:00:39;;;;;;;36.38;19.30;;;;;;;0.09;100.00;102299.97;5252020;28;20104;-78
2023/03/03 04:03:13;;;;;;;32.53;17.67;;;;;;;0.06;100.00;102304.38;5249525;28;20510;-78
2023/03/03 04:05:44;;;;;;;36.40;19.00;;;;;;;0.07;100.00;102301.75;5247588;28;20036;-78
2023/03/03 04:08:15;;;;;;;35.45;18.08;;;;;;;0.04;100.00;102306.16;5250188;28;20025;-78
2023/03/03 04:10:47;;;;;;;39.28;19.35;;;;;;;-0.01;100.00;102306.19;5249224;28;20503;-78
2023/03/03 04:13:18;;;;;;;34.35;18.00;;;;;;;-0.02;100.00;102309.69;5251566;28;20025;-78
2023/03/03 04:15:49;;;;;;;34.03;17.50;;;;;;;-0.05;100.00;102313.22;5249648;28;20033;-78
2023/03/03 04:18:20;;;;;;;32.88;16.63;;;;;;;-0.08;100.00;102305.38;5251446;28;20025;-79
2023/03/03 04:20:53;;;;;;;34.92;17.50;;;;;;;-0.08;100.00;102302.75;5248973;28;20402;-78
2023/03/03 04:23:24;;;;;;;30.58;16.13;;;;;;;-0.07;100.00;102308.88;5250517;28;20462;-78
2023/03/03 04:25:56;;;;;;;34.50;17.02;;;;;;;-0.03;100.00;102310.59;5248904;28;20076;-78
2023/03/03 04:28:27;;;;;;;32.20;17.42;;;;;;;0.00;100.00;102318.47;5247587;28;20636;-78
2023/03/03 04:30:58;;;;;;;36.90;18.77;;;;;;;0.01;100.00;102316.69;5247391;28;20036;-78
2023/03/03 04:33:30;;;;;;;34.83;17.90;;;;;;;0.04;100.00;102314.91;5251060;28;20053;-78
2023/03/03 04:36:01;;;;;;;34.25;17.35;;;;;;;0.03;100.00;102313.16;5245474;28;20423;-78
2023/03/03 04:38:33;;;;;;;36.22;17.20;;;;;;;0.05;100.00;102318.41;5247969;28;20499;-78
2023/03/03 04:41:04;;;;;;;33.92;18.17;;;;;;;0.05;100.00;102319.25;5251218;28;20032;-78
2023/03/03 04:43:35;;;;;;;33.33;17.13;;;;;;;0.04;100.00;102320.16;5249389;28;20480;-78
2023/03/03 04:46:07;;;;;;;31.05;16.77;;;;;;;0.03;100.00;102310.53;5248221;28;20633;-78
2023/03/03 04:48:38;;;;;;;33.17;17.27;;;;;;;0.05;100.00;102315.78;5250227;28;20486;-78
2023/03/03 04:51:09;;;;;;;31.67;16.88;;;;;;;0.01;100.00;102314.94;5246618;28;20036;-78
2023/03/03 04:53:41;;;;;;;34.60;18.27;;;;;;;0.03;100.00;102312.31;5243948;28;20106;-78
2023/03/03 04:56:12;;;;;;;36.20;17.52;;;;;;;0.07;100.00;102317.50;5249199;28;20029;-78
2023/03/03 04:58:44;;;;;;;34.95;17.58;;;;;;;0.09;100.00;102320.97;5250411;28;20098;-78
2023/03/03 05:01:15;;;;;;;33.20;17.50;;;;;;;0.10;100.00;102319.25;5251025;28;20037;-78
2023/03/03 05:03:46;;;;;;;36.63;18.80;;;;;;;0.08;100.00;102316.63;5250740;28;20029;-78
2023/03/03 05:06:18;;;;;;;32.83;16.63;;;;;;;0.13;100.00;102313.94;5250504;28;20039;-78
2023/03/03 05:08:49;;;;;;;33.28;17.02;;;;;;;0.14;100.00;102318.31;5247051;28;20033;-78
2023/03/03 05:11:20;;;;;;;33.80;16.90;;;;;;;0.12;100.00;102323.56;5251200;28;20548;-78
2023/03/03 05:13:52;;;;;;;33.42;16.27;;;;;;;0.16;100.00;102316.56;5249932;28;20036;-79
2023/03/03 05:16:23;;;;;;;32.70;16.35;;;;;;;0.12;100.00;102318.34;5250317;28;20494;-78
2023/03/03 05:18:54;;;;;;;35.03;17.35;;;;;;;0.12;100.00;102320.09;5250701;28;20111;-78
2023/03/03 05:21:26;;;;;;;35.40;17.40;;;;;;;0.12;100.00;102320.09;5249836;28;20029;-79
2023/03/03 05:23:57;;;;;;;37.78;18.52;;;;;;;0.14;100.00;102326.19;5244556;28;20039;-78
2023/03/03 05:26:28;;;;;;;37.95;18.33;;;;;;;0.20;100.00;102331.38;5247225;28;20044;-78
2023/03/03 05:28:59;;;;;;;37.88;18.38;;;;;;;0.21;100.00;102333.09;5248246;28;20025;-79
2023/03/03 05:31:31;;;;;;;38.25;19.02;;;;;;;0.24;100.00;102332.22;5250909;28;20556;-78
2023/03/03 05:34:02;;;;;;;36.88;19.00;;;;;;;0.26;100.00;102333.94;5250369;28;20054;-78
2023/03/03 05:36:34;;;;;;;36.30;19.15;;;;;;;0.24;100.00;102335.72;5248477;28;20487;-80
2023/03/03 05:39:05;;;;;;;34.65;18.10;;;;;;;0.25;100.00;102336.56;5247683;28;20061;-79
2023/03/03 05:41:36;;;;;;;38.05;18.08;;;;;;;0.26;100.00;102333.94;5246079;28;20032;-78
2023/03/03 05:44:08;;;;;;;32.97;16.02;;;;;;;0.30;100.00;102332.16;5249100;28;20033;-78
2023/03/03 05:46:39;;;;;;;34.42;16.88;;;;;;;0.31;100.00;102331.28;5248954;28;20483;-79
2023/03/03 05:49:10;;;;;;;32.65;17.55;;;;;;;0.29;100.00;102331.31;5247536;28;20086;-79
2023/03/03 05:51:42;;;;;;;34.08;16.30;;;;;;;0.30;100.00;102335.66;5248105;28;20402;-78
2023/03/03 05:54:13;;;;;;;32.78;16.17;;;;;;;0.31;100.00;102334.78;5247724;28;20483;-78
2023/03/03 05:56:44;;;;;;;36.50;16.27;;;;;;;0.35;100.00;102340.88;5247429;28;20040;-79
2023/03/03 05:59:16;;;;;;;33.70;16.02;;;;;;;0.34;100.00;102339.97;5240954;28;20081;-78
2023/03/03 06:01:47;;;;;;;32.90;16.42;;;;;;;0.42;100.00;102339.91;5243569;28;20669;-79
2023/03/03 06:04:18;;;;;;;30.63;14.88;;;;;;;0.36;100.00;102338.22;5247235;28;20021;-78
2023/03/03 06:06:50;;;;;;;33.55;17.10;;;;;;;0.38;100.00;102341.72;5248705;28;20033;-79
2023/03/03 06:09:21;;;;;;;33.45;16.38;;;;;;;0.40;100.00;102341.69;5247503;28;20021;-78
2023/03/03 06:11:52;;;;;;;30.70;16.17;;;;;;;0.43;100.00;102343.41;5248099;28;20554;-79
2023/03/03 06:14:24;;;;;;;36.45;16.90;;;;;;;0.45;100.00;102332.00;5245514;28;20455;-79
2023/03/03 06:16:56;;;;;;;32.63;16.50;;;;;;;0.47;100.00;102340.75;5246904;28;20407;-79
2023/03/03 06:19:28;;;;;;;32.55;15.50;;;;;;;0.48;100.00;102347.75;5244156;28;20029;-79
2023/03/03 06:21:59;;;;;;;33.90;16.08;;;;;;;0.50;100.00;102343.34;5246707;28;20636;-78
2023/03/03 06:24:30;;;;;;;32.58;16.10;;;;;;;0.54;100.00;102352.94;5244563;28;20408;-79
2023/03/03 06:27:02;;;;;;;36.60;16.55;;;;;;;0.54;100.00;102355.56;5244416;28;20059;-79
2023/03/03 06:29:33;;;;;;;34.90;17.08;;;;;;;0.59;100.00;102360.75;5242030;28;20033;-79
2023/03/03 06:32:04;;;;;;;37.70;18.08;;;;;;;0.60;100.00;102359.88;5244675;28;20029;-78
2023/03/03 06:34:35;;;;;;;32.60;15.98;;;;;;;0.57;100.00;102365.16;5247045;28;20036;-79
2023/03/03 06:37:07;;;;;;;31.92;15.45;;;;;;;0.62;100.00;102365.97;5250322;28;20075;-79
2023/03/03 06:39:38;;;;;;;33.90;16.17;;;;;;;0.62;100.00;102376.47;5243697;28;20451;-79
2023/03/03 06:42:09;;;;;;;30.90;15.63;;;;;;;0.66;100.00;102379.94;5244344;28;20116;-78
2023/03/03 06:44:41;;;;;;;38.65;16.70;;;;;;;0.67;100.00;102376.41;5238476;28;20137;-78
2023/03/03 06:47:12;;;;;;;34.50;15.57;;;;;;;0.68;100.00;102386.06;5244857;28;20024;-78
2023/03/03 06:49:43;;;;;;;31.83;15.63;;;;;;;0.71;100.00;102381.66;5244027;28;20032;-79
2023/03/03 06:52:23;;;;;;;32.38;15.77;;;;;;;0.70;100.00;102387.78;5237760;28;20614;-78
2023/03/03 06:54:59;;;;;;;35.28;16.83;;;;;;;0.73;100.00;102387.75;5246542;28;20067;-78
2023/03/03 06:57:32;;;;;;;31.13;15.93;;;;;;;0.78;100.00;102392.94;5253443;28;20031;-78
2023/03/03 07:00:14;;;;;;;32.85;16.02;;;;;;;0.75;100.00;102403.50;5249035;28;21958;-78
2023/03/03 07:03:11;;;;;;;34.78;16.83;;;;;;;0.80;100.00;102406.06;5248815;28;20029;-79
2023/03/03 07:05:42;;;;;;;33.85;15.60;;;;;;;0.80;100.00;102400.81;5253345;28;20510;-78
2023/03/03 07:08:19;;;;;;;33.42;16.92;;;;;;;0.81;100.00;102403.44;5252298;28;20039;-78
2023/03/03 07:10:51;;;;;;;35.00;16.85;;;;;;;0.83;100.00;102404.28;5253655;28;20502;-78
2023/03/03 07:13:28;;;;;;;37.80;16.80;;;;;;;0.94;100.00;102406.78;5253466;28;20060;-78
2023/03/03 07:16:05;;;;;;;35.20;17.08;;;;;;;0.88;100.00;102397.22;5249823;28;20111;-78
2023/03/03 07:18:43;;;;;;;33.83;15.75;;;;;;;0.91;100.00;102399.81;5248716;28;20694;-78
2023/03/03 07:21:29;;;;;;;33.08;16.02;;;;;;;0.94;100.00;102407.66;5254036;28;20041;-78
2023/03/03 07:24:26;;;;;;;34.67;16.63;;;;;;;0.96;100.00;102402.41;5251474;28;20475;-78
2023/03/03 07:27:13;;;;;;;32.95;16.42;;;;;;;1.02;100.00;102410.22;5253234;28;20088;-78
2023/03/03 07:29:50;;;;;;;36.22;17.30;;;;;;;1.04;100.00;102408.44;5249597;28;20025;-79
2023/03/03 07:32:26;;;;;;;33.70;16.90;;;;;;;1.05;100.00;102410.16;5248095;28;20033;-78
2023/03/03 07:34:57;;;;;;;38.90;18.42;;;;;;;1.09;100.00;102409.22;5248278;28;20064;-78
2023/03/03 07:37:37;;;;;;;36.22;17.88;;;;;;;1.09;100.00;102411.84;5245471;28;20124;-78
2023/03/03 07:40:28;;;;;;;44.45;18.65;;;;;;;1.10;100.00;102421.50;5247717;28;20083;-79
2023/03/03 07:43:00;;;;;;;40.42;17.88;;;;;;;1.14;100.00;102420.56;5250011;28;20047;-78
2023/03/03 07:45:36;;;;;;;35.63;17.13;;;;;;;1.15;100.00;102426.69;5249042;28;20036;-78
2023/03/03 07:48:21;;;;;;;45.63;17.95;;;;;;;1.16;100.00;102423.19;5249632;28;20117;-78
2023/03/03 07:50:52;;;;;;;40.40;17.17;;;;;;;1.20;100.00;102429.28;5246392;28;20533;-79
2023/03/03 07:53:27;;;;;;;40.35;17.75;;;;;;;1.22;100.00;102438.88;5252246;28;20040;-79
2023/03/03 07:56:00;;;;;;;33.80;17.30;;;;;;;1.27;100.00;102438.84;5245863;28;20040;-78
2023/03/03 07:58:38;;;;;;;32.20;15.88;;;;;;;1.24;100.00;102433.59;5252400;28;20048;-79
2023/03/03 08:01:38;;;;;;;36.05;17.80;;;;;;;1.29;100.00;102435.28;5249591;28;20090;-78
2023/03/03 08:04:28;;;;;;;34.42;16.83;;;;;;;1.25;100.00;102438.00;5245726;28;20119;-78
2023/03/03 08:07:01;;;;;;;37.65;17.77;;;;;;;1.23;100.00;102442.38;5252326;28;20036;-79
2023/03/03 08:09:41;;;;;;;34.72;15.98;;;;;;;1.25;100.00;102446.75;5252297;28;20040;-78
2023/03/03 08:12:28;;;;;;;39.40;17.70;;;;;;;1.30;100.00;102449.31;5250103;28;20432;-78
2023/03/03 08:15:22;;;;;;;34.58;16.13;;;;;;;1.31;100.00;102449.28;5250530;28;20033;-77
2023/03/03 08:17:55;;;;;;;36.95;16.48;;;;;;;1.28;100.00;102448.44;5250643;28;20025;-76
2023/03/03 08:20:49;;;;;;;32.75;15.95;;;;;;;1.34;100.00;102461.53;5248923;28;20123;-76
2023/03/03 08:23:21;;;;;;;31.50;15.53;;;;;;;1.33;100.00;102454.53;5246436;28;20037;-77
2023/03/03 08:25:53;;;;;;;33.40;15.27;;;;;;;1.36;100.00;102451.84;5251071;28;20812;-76
2023/03/03 08:28:24;;;;;;;32.17;14.98;;;;;;;1.41;100.00;102464.97;5249767;28;20483;-77
2023/03/03 08:30:56;;;;;;;32.78;14.50;;;;;;;1.43;100.00;102464.03;5252771;28;20151;-76
2023/03/03 08:33:27;;;;;;;32.25;15.00;;;;;;;1.50;100.00;102467.50;5247446;28;20033;-76
2023/03/03 08:35:58;;;;;;;29.35;14.43;;;;;;;1.53;100.00;102462.16;5251751;28;20096;-77
2023/03/03 08:38:30;;;;;;;26.70;13.65;;;;;;;1.61;100.00;102468.22;5252365;28;20070;-76
2023/03/03 08:41:01;;;;;;;28.02;14.27;;;;;;;1.72;100.00;102465.44;5255468;28;20025;-77
2023/03/03 08:43:33;;;;;;;29.88;13.60;;;;;;;1.85;100.00;102466.16;5254044;28;20032;-76
2023/03/03 08:46:06;;;;;;;29.25;14.20;;;;;;;1.90;100.00;102474.84;5255805;28;20029;-76
2023/03/03 08:48:37;;;;;;;34.13;15.63;;;;;;;1.81;100.00;102465.31;5254005;28;20029;-76
2023/03/03 08:51:08;;;;;;;37.20;18.35;;;;;;;1.83;100.00;102476.69;5253666;28;20081;-76
2023/03/03 08:53:40;;;;;;;35.83;17.83;;;;;;;1.80;100.00;102479.34;5250913;28;20028;-76
2023/03/03 08:56:11;;;;;;;34.90;17.02;;;;;;;1.79;100.00;102488.16;5254796;28;20032;-76
2023/03/03 08:58:46;;;;;;;36.28;17.80;;;;;;;1.79;100.00;102488.16;5256537;28;20036;-76
2023/03/03 09:01:18;;;;;;;38.60;17.58;;;;;;;1.79;100.00;102495.19;5251440;28;20029;-77
2023/03/03 09:03:49;;;;;;;32.70;16.27;;;;;;;1.82;100.00;102488.09;5251494;28;20025;-77
2023/03/03 09:06:20;;;;;;;34.30;16.88;;;;;;;1.89;100.00;102495.03;5254399;28;20518;-76
2023/03/03 09:08:53;;;;;;;33.17;16.65;;;;;;;1.94;100.00;102494.97;5253084;28;20033;-77
2023/03/03 09:11:28;;;;;;;33.40;14.80;;;;;;;1.95;100.00;102492.28;5253522;28;20060;-77
2023/03/03 09:14:09;;;;;;;;;;;;;;;2.04;100.00;102493.06;5254783;28;20056;-77
2023/03/03 09:16:51;;;;;;;34.40;16.55;;;;;;;2.06;100.00;102493.94;5252410;28;19927;-77
2023/03/03 09:19:31;;;;;;;30.08;14.82;;;;;;;2.05;100.00;102493.06;5253516;28;20127;-78
2023/03/03 09:22:18;;;;;;;28.52;13.85;;;;;;;2.07;100.00;102500.91;5251191;28;20025;-77
2023/03/03 09:24:53;;;;;;;28.08;14.73;;;;;;;2.11;100.00;102500.88;5253367;28;20029;-77
2023/03/03 09:27:27;;;;;;;;;;;;;;;2.19;100.00;102498.13;5255119;28;20385;-76
2023/03/03 09:30:25;;;;;;;29.42;14.23;;;;;;;2.15;100.00;102504.34;5253749;28;20377;-77
2023/03/03 09:32:57;;;;;;;27.98;13.20;;;;;;;2.19;100.00;102507.75;5256038;28;20071;-77
2023/03/03 09:35:37;;;;;;;26.63;12.95;;;;;;;2.21;100.00;102498.09;5248744;28;20057;-77
2023/03/03 09:38:24;;;;;;;27.65;13.50;;;;;;;2.29;100.00;102501.47;5248951;28;20044;-77
2023/03/03 09:41:25;;;;;;;23.85;12.25;;;;;;;2.39;100.00;102507.47;5255633;28;20102;-76
2023/03/03 09:44:03;;;;;;;26.30;13.00;;;;;;;2.43;100.00;102504.75;5255834;28;20387;-76
2023/03/03 09:46:53;;;;;;;19.42;11.25;;;;;;;2.49;100.00;102511.69;5250271;28;20063;-76
2023/03/03 09:49:39;;;;;;;23.70;11.75;;;;;;;2.53;100.00;102502.84;5252520;28;20035;-76
2023/03/03 09:52:26;;;;;;;22.20;11.02;;;;;;;2.60;100.00;102507.13;5252603;28;20036;-76
2023/03/03 09:55:10;;;;;;;22.73;11.25;;;;;;;2.79;100.00;102501.56;5250183;28;20043;-77
2023/03/03 09:58:18;;;;;;;26.10;12.23;;;;;;;2.83;100.00;102506.75;5250934;28;20052;-76
2023/03/03 10:01:09;;;;;;;22.40;10.13;;;;;;;2.89;100.00;102514.53;5246153;28;20548;-76
2023/03/03 10:04:25;;;;;;;17.83;10.27;;;;;;;2.96;100.00;102511.81;5252269;28;20033;-78
2023/03/03 10:07:18;;;;;;;18.55;10.93;;;;;;;2.98;100.00;102515.28;5251248;28;20045;-77
2023/03/03 10:10:28;;;;;;;21.80;10.38;;;;;;;2.95;100.00;102516.19;5252573;28;20051;-79
2023/03/03 10:13:08;;;;;;;17.52;10.07;;;;;;;3.02;100.00;102515.19;5251937;28;20035;-78
2023/03/03 10:16:17;;;;;;;18.27;9.45;;;;;;;3.04;100.00;102520.44;5250026;28;20029;-78
2023/03/03 10:19:01;;;;;;;18.75;9.40;;;;;;;3.06;100.00;102514.25;5252037;28;20033;-77
2023/03/03 10:21:43;;;;;;;19.52;10.15;;;;;;;3.05;100.00;102517.78;5252268;28;20510;-77
2023/03/03 10:24:26;;;;;;;17.92;9.77;;;;;;;3.16;100.00;102508.81;5246496;28;20104;-77
2023/03/03 10:27:32;;;;;;;17.13;10.17;;;;;;;3.21;100.00;102521.00;5243532;28;20033;-78
2023/03/03 10:30:42;;;;;;;18.35;8.80;;;;;;;3.37;100.00;102521.56;5246813;28;20135;-77
2023/03/03 10:33:31;;;;;;;17.63;8.98;;;;;;;3.40;100.00;102510.97;5248049;28;20036;-77
2023/03/03 10:36:11;;;;;;;19.65;10.27;;;;;;;3.47;100.00;102528.44;5247477;28;20086;-77
2023/03/03 10:39:26;;;;;;;18.23;9.25;;;;;;;3.50;100.00;102522.22;5241694;28;20089;-77
2023/03/03 10:42:21;;;;;;;15.95;9.15;;;;;;;3.48;100.00;102524.00;5244217;28;20041;-78
2023/03/03 10:44:55;;;;;;;;;;;;;;;3.60;100.00;102520.25;5244281;28;20265;-77
2023/03/03 10:48:07;;;;;;;17.13;9.80;;;;;;;3.66;100.00;102521.00;5246755;28;19925;-77
2023/03/03 10:50:50;;;;;;;18.05;9.68;;;;;;;3.80;100.00;102511.94;5247390;28;20299;-76
2023/03/03 10:53:38;;;;;;;17.85;9.77;;;;;;;3.83;100.00;102518.00;5240646;28;20465;-76
2023/03/03 10:56:28;;;;;;;19.17;10.57;;;;;;;3.95;100.00;102516.00;5242618;28;20037;-77
2023/03/03 10:59:27;;;;;;;20.27;10.80;;;;;;;4.02;100.00;102512.31;5246722;28;20105;-77
2023/03/03 11:02:05;;;;;;;21.02;10.52;;;;;;;4.04;100.00;102516.66;5243748;28;20029;-77
2023/03/03 11:05:07;;;;;;;18.25;9.77;;;;;;;4.04;100.00;102511.38;5251341;28;20714;-76
2023/03/03 11:07:47;;;;;;;18.75;9.38;;;;;;;4.12;100.00;102514.75;5242634;28;20036;-77
2023/03/03 11:10:39;;;;;;;19.38;10.13;;;;;;;4.05;100.00;102510.50;5243650;28;20047;-77
2023/03/03 11:13:35;;;;;;;21.15;9.90;;;;;;;4.10;100.00;102510.38;5247795;28;20029;-77
2023/03/03 11:16:20;;;;;;;17.90;9.95;;;;;;;4.21;100.00;102507.50;5243115;28;20047;-77
2023/03/03 11:19:00;;;;;;;;;;;;;;;4.30;100.00;102509.94;5242852;28;20029;-77
2023/03/03 11:21:41;;;;;;;18.08;9.70;;;;;;;4.15;100.00;102507.66;5244601;28;19916;-74
2023/03/03 11:24:22;;;;;;;19.98;10.50;;;;;;;4.08;100.00;102506.91;5242909;28;20079;-74
2023/03/03 11:27:17;;;;;;;18.60;10.23;;;;;;;4.11;100.00;102506.84;5241783;28;20448;-74
2023/03/03 11:29:51;;;;;;;17.65;9.85;;;;;;;4.22;100.00;102499.53;5242473;28;20067;-74
2023/03/03 11:32:59;;;;;;;19.58;10.48;;;;;;;4.24;100.00;102505.66;5245906;28;20032;-74
2023/03/03 11:35:56;;;;;;;20.15;11.38;;;;;;;4.31;100.00;102501.97;5220952;28;20057;-74
2023/03/03 11:38:41;;;;;;;19.48;10.73;;;;;;;4.32;100.00;102500.19;5228489;28;20037;-74
2023/03/03 11:41:29;;;;;;;19.98;10.43;;;;;;;4.45;100.00;102495.47;5246018;28;20025;-74
2023/03/03 11:44:25;;;;;;;17.20;9.93;;;;;;;4.60;100.00;102504.81;5243551;28;20029;-74
2023/03/03 11:47:34;;;;;;;19.27;9.70;;;;;;;4.70;100.00;102485.19;5247662;28;20032;-74
2023/03/03 11:50:14;;;;;;;22.02;10.90;;;;;;;4.82;100.00;102494.56;5246810;28;20061;-74
2023/03/03 11:53:43;;;;;;;17.92;9.57;;;;;;;4.81;100.00;102492.81;5245559;28;20033;-74
2023/03/03 11:56:21;;;;;;;16.80;9.63;;;;;;;4.74;100.00;102491.22;5233373;28;20136;-75
2023/03/03 11:59:01;;;;;;;16.83;9.77;;;;;;;4.71;100.00;102484.25;5246778;28;20029;-75